createdAt,value
2022-11-08T00:03:31.292Z,7.05
2022-11-08T00:13:54.549Z,7.11
2022-11-08T00:24:00.208Z,7.16
2022-11-08T00:34:05.805Z,7.22
2022-11-08T00:44:11.484Z,7.25
2022-11-08T00:54:19.081Z,7.27
2022-11-08T01:04:24.668Z,7.29
2022-11-08T01:14:31.217Z,7.32
2022-11-08T01:24:36.908Z,7.32
2022-11-08T01:34:42.502Z,7.30
2022-11-08T01:45:02.175Z,7.31
2022-11-08T01:55:18.666Z,7.28
2022-11-08T02:05:27.294Z,7.13
2022-11-08T02:15:33.145Z,6.92
2022-11-08T02:25:38.741Z,6.75
2022-11-08T02:35:45.717Z,6.71
2022-11-08T02:45:51.944Z,6.55
2022-11-08T02:55:57.664Z,6.52
2022-11-08T03:06:03.353Z,6.57
2022-11-08T03:16:09.895Z,6.60
2022-11-08T03:26:15.434Z,6.66
2022-11-08T03:36:20.944Z,6.45
2022-11-08T03:46:26.504Z,6.16
2022-11-08T03:56:32.094Z,6.09
2022-11-08T04:06:37.679Z,6.06
2022-11-08T04:16:43.331Z,5.81
2022-11-08T04:26:49.183Z,5.48
2022-11-08T04:36:54.727Z,5.20
2022-11-08T04:47:00.360Z,4.96
2022-11-08T04:57:06.070Z,4.69
2022-11-08T05:07:11.649Z,4.45
2022-11-08T05:17:17.207Z,4.28
2022-11-08T05:27:22.716Z,4.09
2022-11-08T05:37:28.229Z,3.96
2022-11-08T05:47:33.817Z,3.93
2022-11-08T05:57:42.479Z,3.88
2022-11-08T06:07:48.072Z,3.89
2022-11-08T06:17:53.685Z,4.08
2022-11-08T06:28:01.942Z,4.37
2022-11-08T06:38:09.450Z,4.65
2022-11-08T06:48:15.365Z,5.17
2022-11-08T06:58:20.963Z,7.69
2022-11-08T07:08:26.963Z,11.33
2022-11-08T07:18:32.916Z,14.55
2022-11-08T07:28:38.652Z,17.62
2022-11-08T07:38:44.260Z,20.40
2022-11-08T07:48:49.841Z,21.01
2022-11-08T07:58:55.507Z,21.66
2022-11-08T08:09:01.136Z,23.17
2022-11-08T08:19:07.449Z,24.22
2022-11-08T08:29:11.576Z,25.71
2022-11-08T08:39:17.261Z,26.98
2022-11-08T08:49:22.978Z,28.27
2022-11-08T09:09:55.981Z,28.86
2022-11-08T09:20:01.614Z,28.57
2022-11-08T09:30:09.125Z,25.15
2022-11-08T09:40:19.051Z,21.45
2022-11-08T09:50:31.915Z,18.59
2022-11-08T10:00:41.229Z,16.57
2022-11-08T10:11:10.471Z,15.45
2022-11-08T10:21:32.566Z,14.61
2022-11-08T10:31:41.645Z,14.08
2022-11-08T10:41:53.875Z,13.76
2022-11-08T10:52:01.005Z,13.55
2022-11-08T11:02:20.871Z,13.45
2022-11-08T11:12:26.659Z,13.44
2022-11-08T11:22:34.520Z,13.45
2022-11-08T11:32:40.398Z,13.48
2022-11-08T11:42:55.381Z,13.51
2022-11-08T11:53:04.905Z,13.56
2022-11-08T12:03:37.931Z,13.57
2022-11-08T12:13:54.688Z,13.55
2022-11-08T12:24:23.141Z,13.58
2022-11-08T12:34:36.173Z,13.58
2022-11-08T12:44:57.356Z,13.59
2022-11-08T12:55:07.073Z,13.60
2022-11-08T13:05:20.503Z,13.58
2022-11-08T13:15:28.231Z,13.56
2022-11-08T13:25:41.928Z,13.51
2022-11-08T13:35:57.457Z,13.45
2022-11-08T13:46:33.839Z,13.35
2022-11-08T13:56:53.979Z,13.23
2022-11-08T14:07:07.941Z,13.10
2022-11-08T14:17:29.942Z,12.94
2022-11-08T14:27:38.152Z,12.71
2022-11-08T14:37:45.549Z,12.55
2022-11-08T14:47:55.406Z,12.38
2022-11-08T14:58:15.175Z,11.95
2022-11-08T15:08:27.334Z,11.48
2022-11-08T15:18:37.002Z,11.10
2022-11-08T15:28:42.640Z,10.74
2022-11-08T15:38:51.571Z,10.41
2022-11-08T15:49:03.041Z,10.13
2022-11-08T15:59:10.867Z,9.84
2022-11-08T16:09:16.470Z,9.62
2022-11-08T16:19:23.887Z,9.40
2022-11-08T16:29:30.380Z,9.22
2022-11-08T16:39:36.800Z,9.09
2022-11-08T16:49:43.305Z,9.02
2022-11-08T16:59:51.609Z,8.92
2022-11-08T17:09:57.181Z,8.76
2022-11-08T17:20:02.782Z,8.63
2022-11-08T17:30:10.624Z,8.47
2022-11-08T17:40:15.657Z,8.34
2022-11-08T17:50:21.309Z,8.26
2022-11-08T18:00:27.108Z,8.13
2022-11-08T18:10:32.706Z,8.00
2022-11-08T18:20:38.283Z,7.83
2022-11-08T18:30:47.722Z,7.66
2022-11-08T18:40:53.840Z,7.38
2022-11-08T18:50:59.537Z,7.25
2022-11-08T19:01:06.508Z,7.20
2022-11-08T19:11:13.079Z,7.21
2022-11-08T19:21:20.511Z,7.23
2022-11-08T19:31:27.156Z,7.21
2022-11-08T19:41:32.693Z,7.08
2022-11-08T19:51:38.401Z,7.06
2022-11-08T20:01:44.217Z,6.98
2022-11-08T20:11:50.191Z,6.90
2022-11-08T20:21:58.369Z,6.87
2022-11-08T20:32:04.042Z,6.91
2022-11-08T20:42:09.768Z,7.03
2022-11-08T20:52:16.952Z,7.23
2022-11-08T21:02:22.826Z,7.35
2022-11-08T21:12:28.726Z,7.37
2022-11-08T21:22:34.935Z,7.26
2022-11-08T21:32:40.889Z,7.16
2022-11-08T21:42:48.953Z,7.10
2022-11-08T21:52:54.788Z,7.05
2022-11-08T22:03:00.669Z,6.99
2022-11-08T22:13:06.384Z,6.94
2022-11-08T22:23:12.172Z,6.88
2022-11-08T22:33:17.963Z,6.79
2022-11-08T22:43:24.268Z,6.66
2022-11-08T22:53:30.711Z,6.48
2022-11-08T23:03:36.724Z,6.36
2022-11-08T23:14:00.467Z,6.21
2022-11-08T23:24:23.895Z,6.09
2022-11-08T23:34:29.904Z,5.97
2022-11-08T23:44:35.744Z,5.87
2022-11-08T23:54:41.358Z,5.78
